createdAt,value
2018-11-27T00:02:08.280Z,101132.31
2018-11-27T00:04:36.476Z,101132.78
2018-11-27T00:07:04.708Z,101136.72
2018-11-27T00:09:32.880Z,101141.13
2018-11-27T00:12:01.095Z,101140.28
2018-11-27T00:14:29.293Z,101141.98
2018-11-27T00:16:57.929Z,101142.07
2018-11-27T00:19:26.124Z,101142.07
2018-11-27T00:21:54.313Z,101146.85
2018-11-27T00:24:23.294Z,101148.16
2018-11-27T00:26:51.446Z,101145.07
2018-11-27T00:29:19.649Z,101149.85
2018-11-27T00:31:47.946Z,101145.54
2018-11-27T00:34:16.114Z,101149.95
2018-11-27T00:36:44.369Z,101149.19
2018-11-27T00:39:12.786Z,101146.56
2018-11-27T00:41:42.174Z,101150.88
2018-11-27T00:44:11.035Z,101151.27
2018-11-27T00:46:39.788Z,101150.04
2018-11-27T00:49:07.988Z,101150.12
2018-11-27T00:51:36.183Z,101148.26
2018-11-27T00:54:04.362Z,101156.52
2018-11-27T00:56:32.552Z,101154.35
2018-11-27T00:59:00.812Z,101153.42
2018-11-27T01:01:28.961Z,101154.27
2018-11-27T01:03:57.165Z,101158.58
2018-11-27T01:06:25.341Z,101158.11
2018-11-27T01:08:53.732Z,101165.52
2018-11-27T01:11:21.944Z,101164.21
2018-11-27T01:13:50.225Z,101167.30
2018-11-27T01:16:18.429Z,101172.94
2018-11-27T01:18:46.649Z,101173.11
2018-11-27T01:21:14.781Z,101173.11
2018-11-27T01:23:42.952Z,101177.91
2018-11-27T01:26:11.163Z,101177.52
2018-11-27T01:28:39.367Z,101182.87
2018-11-27T01:31:07.521Z,101183.71
2018-11-27T01:33:35.690Z,101185.02
2018-11-27T01:36:03.896Z,101190.28
2018-11-27T01:38:32.097Z,101185.11
2018-11-27T01:41:00.302Z,101192.15
2018-11-27T01:43:28.546Z,101186.05
2018-11-27T01:45:56.818Z,101188.21
2018-11-27T01:48:25.507Z,101187.27
2018-11-27T01:50:53.660Z,101192.06
2018-11-27T01:53:21.842Z,101199.09
2018-11-27T01:55:50.066Z,101200.41
2018-11-27T01:58:18.213Z,101198.25
2018-11-27T02:00:46.437Z,101200.03
2018-11-27T02:03:14.620Z,101190.45
2018-11-27T02:05:43.549Z,101195.70
2018-11-27T02:08:11.801Z,101190.92
2018-11-27T02:10:39.976Z,101188.30
2018-11-27T02:13:08.160Z,101193.08
2018-11-27T02:15:36.930Z,101189.61
2018-11-27T02:18:05.141Z,101186.52
2018-11-27T02:20:33.431Z,101185.20
2018-11-27T02:23:01.665Z,101182.20
2018-11-27T02:25:30.286Z,101186.14
2018-11-27T02:27:58.533Z,101180.17
2018-11-27T02:30:27.581Z,101181.10
2018-11-27T02:32:55.834Z,101179.50
2018-11-27T02:35:24.988Z,101186.53
2018-11-27T02:37:55.746Z,101188.02
2018-11-27T02:40:23.960Z,101191.77
2018-11-27T02:42:52.197Z,101185.84
2018-11-27T02:45:22.236Z,101193.84
2018-11-27T02:47:52.018Z,101190.64
2018-11-27T02:50:21.244Z,101189.68
2018-11-27T02:52:49.413Z,101192.69
2018-11-27T02:55:21.089Z,101194.38
2018-11-27T02:57:49.341Z,101195.59
2018-11-27T03:00:27.121Z,101194.11
2018-11-27T03:02:55.754Z,101197.95
2018-11-27T03:05:26.101Z,101196.18
2018-11-27T03:07:54.300Z,101190.17
2018-11-27T03:10:22.491Z,101197.20
2018-11-27T03:12:50.761Z,101201.61
2018-11-27T03:15:19.055Z,101201.61
2018-11-27T03:17:47.484Z,101204.70
2018-11-27T03:20:16.718Z,101211.81
2018-11-27T03:22:44.898Z,101213.68
2018-11-27T03:25:19.085Z,101215.17
2018-11-27T03:27:49.178Z,101225.50
2018-11-27T03:30:21.295Z,101218.17
2018-11-27T03:32:49.722Z,101218.64
2018-11-27T03:35:19.757Z,101224.36
2018-11-27T03:37:48.191Z,101227.74
2018-11-27T03:40:19.288Z,101225.03
2018-11-27T03:42:47.526Z,101223.25
2018-11-27T03:45:16.219Z,101220.80
2018-11-27T03:47:44.530Z,101224.27
2018-11-27T03:50:15.035Z,101233.37
2018-11-27T03:52:43.738Z,101242.09
2018-11-27T03:55:12.641Z,101240.48
2018-11-27T03:57:40.836Z,101241.80
2018-11-27T04:00:20.310Z,101246.02
2018-11-27T04:02:51.638Z,101249.88
2018-11-27T04:05:19.971Z,101245.94
2018-11-27T04:07:48.157Z,101247.05
2018-11-27T04:10:18.469Z,101253.61
2018-11-27T04:12:46.628Z,101247.52
2018-11-27T04:15:15.046Z,101255.39
2018-11-27T04:17:49.557Z,101256.23
2018-11-27T04:20:17.861Z,101259.33
2018-11-27T04:22:46.001Z,101260.55
2018-11-27T04:25:16.097Z,101256.15
2018-11-27T04:27:44.900Z,101259.23
2018-11-27T04:30:16.106Z,101259.70
2018-11-27T04:32:44.337Z,101256.23
2018-11-27T04:35:13.488Z,101258.48
2018-11-27T04:37:41.659Z,101260.26
2018-11-27T04:40:11.110Z,101261.22
2018-11-27T04:42:39.351Z,101262.62
2018-11-27T04:45:11.241Z,101253.69
2018-11-27T04:47:39.477Z,101260.89
2018-11-27T04:50:09.734Z,101263.51
2018-11-27T04:52:37.945Z,101262.41
2018-11-27T04:55:07.534Z,101270.81
2018-11-27T04:57:35.708Z,101273.69
2018-11-27T05:00:04.162Z,101275.93
2018-11-27T05:02:32.478Z,101282.48
2018-11-27T05:05:00.687Z,101276.86
2018-11-27T05:07:28.844Z,101287.93
2018-11-27T05:09:57.045Z,101285.25
2018-11-27T05:12:25.816Z,101288.40
2018-11-27T05:14:53.997Z,101286.48
2018-11-27T05:17:22.192Z,101288.73
2018-11-27T05:19:50.384Z,101289.88
2018-11-27T05:22:18.830Z,101289.49
2018-11-27T05:24:47.034Z,101288.89
2018-11-27T05:27:15.174Z,101290.64
2018-11-27T05:29:43.350Z,101298.13
2018-11-27T05:32:11.540Z,101295.24
2018-11-27T05:34:39.797Z,101301.33
2018-11-27T05:37:08.037Z,101297.75
2018-11-27T05:39:36.178Z,101296.44
2018-11-27T05:42:04.341Z,101303.45
2018-11-27T05:44:32.543Z,101300.17
2018-11-27T05:47:00.712Z,101309.05
2018-11-27T05:49:28.869Z,101306.12
2018-11-27T05:51:57.017Z,101305.89
2018-11-27T05:54:25.186Z,101311.90
2018-11-27T05:56:53.398Z,101318.37
2018-11-27T05:59:21.604Z,101321.07
2018-11-27T06:01:49.809Z,101319.30
2018-11-27T06:04:17.981Z,101320.91
2018-11-27T06:06:46.163Z,101323.84
2018-11-27T06:09:14.400Z,101331.16
2018-11-27T06:11:42.637Z,101337.17
2018-11-27T06:14:10.786Z,101336.22
2018-11-27T06:16:38.985Z,101343.84
2018-11-27T06:19:07.229Z,101347.62
2018-11-27T06:21:35.488Z,101351.70
2018-11-27T06:24:03.664Z,101348.50
2018-11-27T06:26:31.861Z,101350.58
2018-11-27T06:29:00.051Z,101359.13
2018-11-27T06:31:28.208Z,101369.00
2018-11-27T06:33:56.394Z,101367.45
2018-11-27T06:36:24.602Z,101367.72
2018-11-27T06:38:52.829Z,101375.43
2018-11-27T06:41:21.037Z,101378.73
2018-11-27T06:43:49.190Z,101382.59
2018-11-27T06:46:17.461Z,101384.59
2018-11-27T06:48:45.628Z,101382.73
2018-11-27T06:51:13.788Z,101385.70
2018-11-27T06:53:41.976Z,101386.40
2018-11-27T06:56:10.151Z,101392.87
2018-11-27T06:58:38.337Z,101388.02
2018-11-27T07:01:06.628Z,101397.96
2018-11-27T07:03:34.865Z,101400.03
2018-11-27T07:06:03.036Z,101400.03
2018-11-27T07:08:31.217Z,101409.61
2018-11-27T07:10:59.369Z,101409.52
2018-11-27T07:13:27.587Z,101411.69
2018-11-27T07:15:55.864Z,101417.31
2018-11-27T07:18:24.016Z,101422.91
2018-11-27T07:20:52.749Z,101436.41
2018-11-27T07:23:21.001Z,101437.73
2018-11-27T07:25:49.254Z,101442.05
2018-11-27T07:28:17.445Z,101437.19
2018-11-27T07:30:45.706Z,101440.58
2018-11-27T07:33:13.868Z,101442.73
2018-11-27T07:35:42.064Z,101451.45
2018-11-27T07:38:10.316Z,101455.77
2018-11-27T07:40:38.485Z,101454.00
2018-11-27T07:43:08.501Z,101459.70
2018-11-27T07:45:36.697Z,101457.08
2018-11-27T07:48:05.368Z,101457.01
2018-11-27T07:50:33.549Z,101455.39
2018-11-27T07:53:01.720Z,101452.30
2018-11-27T07:55:29.886Z,101453.15
2018-11-27T07:57:58.056Z,101451.38
2018-11-27T08:00:27.209Z,101459.55
2018-11-27T08:02:57.394Z,101457.69
2018-11-27T08:05:32.540Z,101451.52
2018-11-27T08:08:00.781Z,101456.66
2018-11-27T08:10:30.214Z,101460.97
2018-11-27T08:12:58.529Z,101467.37
2018-11-27T08:15:29.709Z,101471.23
2018-11-27T08:17:57.943Z,101465.05
2018-11-27T08:20:28.316Z,101465.44
2018-11-27T08:22:56.524Z,101470.60
2018-11-27T08:25:24.686Z,101470.52
2018-11-27T08:27:52.846Z,101471.29
2018-11-27T08:30:21.673Z,101473.45
2018-11-27T08:32:50.096Z,101478.04
2018-11-27T08:35:21.524Z,101484.98
2018-11-27T08:37:50.747Z,101489.61
2018-11-27T08:40:20.850Z,101494.78
2018-11-27T08:42:49.049Z,101494.23
2018-11-27T08:45:18.387Z,101496.70
2018-11-27T08:47:47.329Z,101500.55
2018-11-27T08:50:19.861Z,101498.78
2018-11-27T08:52:50.069Z,101500.74
2018-11-27T08:55:22.817Z,101498.88
2018-11-27T08:57:51.512Z,101497.87
2018-11-27T09:00:21.848Z,101506.05
2018-11-27T09:02:50.054Z,101507.66
2018-11-27T09:05:18.292Z,101508.78
2018-11-27T09:07:46.848Z,101503.83
2018-11-27T09:10:23.060Z,101505.91
2018-11-27T09:12:51.300Z,101507.14
2018-11-27T09:15:21.472Z,101514.01
2018-11-27T09:17:52.652Z,101514.22
2018-11-27T09:20:21.007Z,101514.14
2018-11-27T09:22:49.133Z,101511.31
2018-11-27T09:25:17.398Z,101518.18
2018-11-27T09:27:45.671Z,101520.34
2018-11-27T09:30:18.044Z,101526.36
2018-11-27T09:32:46.230Z,101531.07
2018-11-27T09:35:14.377Z,101532.68
2018-11-27T09:37:42.564Z,101529.13
2018-11-27T09:40:12.976Z,101530.70
2018-11-27T09:42:41.270Z,101538.03
2018-11-27T09:45:13.041Z,101536.17
2018-11-27T09:47:41.696Z,101545.67
2018-11-27T09:50:11.405Z,101544.27
2018-11-27T09:52:39.647Z,101532.36
2018-11-27T09:55:16.256Z,101532.28
2018-11-27T09:57:44.571Z,101532.11
2018-11-27T10:00:17.861Z,101529.36
2018-11-27T10:02:46.097Z,101520.46
2018-11-27T10:05:14.678Z,101522.54
2018-11-27T10:07:42.962Z,101524.65
2018-11-27T10:10:12.260Z,101520.92
2018-11-27T10:12:40.438Z,101522.06
2018-11-27T10:15:13.458Z,101521.30
2018-11-27T10:17:41.753Z,101511.93
2018-11-27T10:20:13.557Z,101505.19
2018-11-27T10:22:41.743Z,101499.38
2018-11-27T10:25:11.125Z,101505.73
2018-11-27T10:27:39.392Z,101505.56
2018-11-27T10:30:26.361Z,101506.23
2018-11-27T10:32:55.758Z,101500.89
2018-11-27T10:35:25.952Z,101498.64
2018-11-27T10:37:54.136Z,101503.34
2018-11-27T10:40:22.412Z,101509.74
2018-11-27T10:42:50.850Z,101507.46
2018-11-27T10:45:20.086Z,101507.20
2018-11-27T10:47:49.324Z,101505.33
2018-11-27T10:50:18.180Z,101507.22
2018-11-27T10:52:48.521Z,101518.97
2018-11-27T10:55:17.503Z,101518.97
2018-11-27T10:57:46.475Z,101521.60
2018-11-27T11:00:25.966Z,101523.85
2018-11-27T11:02:59.594Z,101529.67
2018-11-27T11:05:31.727Z,101532.77
2018-11-27T11:07:59.983Z,101529.76
2018-11-27T11:10:28.202Z,101533.15
2018-11-27T11:12:56.415Z,101528.18
2018-11-27T11:15:24.570Z,101527.97
2018-11-27T11:17:52.741Z,101533.99
2018-11-27T11:20:21.321Z,101535.51
2018-11-27T11:22:49.557Z,101540.97
2018-11-27T11:25:19.929Z,101531.20
2018-11-27T11:27:50.891Z,101532.78
2018-11-27T11:30:20.850Z,101540.03
2018-11-27T11:32:49.040Z,101532.42
2018-11-27T11:35:17.225Z,101530.08
2018-11-27T11:37:45.395Z,101534.69
2018-11-27T11:40:17.527Z,101538.17
2018-11-27T11:42:45.669Z,101530.66
2018-11-27T11:45:13.817Z,101535.33
2018-11-27T11:47:42.269Z,101538.25
2018-11-27T11:50:13.733Z,101528.56
2018-11-27T11:52:45.339Z,101530.82
2018-11-27T11:55:12.434Z,101534.21
2018-11-27T11:57:40.573Z,101532.52
2018-11-27T12:00:19.389Z,101523.77
2018-11-27T12:02:47.617Z,101531.67
2018-11-27T12:05:15.681Z,101530.82
2018-11-27T12:07:43.838Z,101532.14
2018-11-27T12:10:14.025Z,101534.39
2018-11-27T12:12:42.968Z,101539.66
2018-11-27T12:15:13.305Z,101548.95
2018-11-27T12:17:41.757Z,101555.66
2018-11-27T12:20:12.146Z,101552.19
2018-11-27T12:22:41.178Z,101558.30
2018-11-27T12:25:10.485Z,101559.61
2018-11-27T12:27:38.701Z,101562.24
2018-11-27T12:30:19.833Z,101561.48
2018-11-27T12:32:48.030Z,101562.80
2018-11-27T12:35:16.870Z,101572.09
2018-11-27T12:37:45.050Z,101572.09
2018-11-27T12:40:14.908Z,101570.02
2018-11-27T12:42:43.709Z,101568.80
2018-11-27T12:45:14.937Z,101569.36
2018-11-27T12:47:43.347Z,101574.62
2018-11-27T12:50:18.568Z,101575.47
2018-11-27T12:52:46.716Z,101580.35
2018-11-27T12:55:16.116Z,101577.05
2018-11-27T12:57:44.325Z,101587.31
2018-11-27T13:00:15.776Z,101586.64
2018-11-27T13:02:43.947Z,101585.41
2018-11-27T13:05:13.476Z,101588.52
2018-11-27T13:07:41.805Z,101581.17
2018-11-27T13:10:11.628Z,101582.49
2018-11-27T13:12:40.005Z,101581.64
2018-11-27T13:15:11.832Z,101583.98
2018-11-27T13:17:40.727Z,101591.49
2018-11-27T13:20:10.761Z,101592.81
2018-11-27T13:22:39.240Z,101587.16
2018-11-27T13:25:12.755Z,101583.22
2018-11-27T13:27:40.919Z,101585.47
2018-11-27T13:30:20.411Z,101582.84
2018-11-27T13:32:52.462Z,101579.86
2018-11-27T13:35:20.752Z,101572.52
2018-11-27T13:37:48.956Z,101569.34
2018-11-27T13:40:17.153Z,101570.27
2018-11-27T13:42:45.352Z,101569.34
2018-11-27T13:45:14.640Z,101576.84
2018-11-27T13:47:43.120Z,101573.38
2018-11-27T13:50:12.456Z,101575.16
2018-11-27T13:52:40.717Z,101572.52
2018-11-27T13:55:25.005Z,101570.65
2018-11-27T13:57:53.202Z,101567.44
2018-11-27T14:00:21.373Z,101567.73
2018-11-27T14:02:52.050Z,101570.36
2018-11-27T14:05:21.429Z,101578.34
2018-11-27T14:07:49.588Z,101581.17
2018-11-27T14:10:17.768Z,101590.85
2018-11-27T14:12:45.945Z,101595.27
2018-11-27T14:15:20.016Z,101591.23
2018-11-27T14:17:48.438Z,101591.11
2018-11-27T14:20:16.660Z,101597.69
2018-11-27T14:22:46.043Z,101587.55
2018-11-27T14:25:14.588Z,101588.77
2018-11-27T14:27:42.982Z,101593.10
2018-11-27T14:30:15.455Z,101596.66
2018-11-27T14:32:43.827Z,101610.58
2018-11-27T14:35:12.617Z,101607.95
2018-11-27T14:37:40.833Z,101607.57
2018-11-27T14:40:15.339Z,101607.28
2018-11-27T14:42:43.618Z,101605.96
2018-11-27T14:45:17.935Z,101609.73
2018-11-27T14:47:47.434Z,101608.59
2018-11-27T14:50:15.615Z,101613.94
2018-11-27T14:52:43.862Z,101615.69
2018-11-27T14:55:28.146Z,101614.66
2018-11-27T14:57:56.393Z,101621.10
2018-11-27T15:00:25.301Z,101618.55
2018-11-27T15:02:53.709Z,101623.05
2018-11-27T15:05:29.981Z,101622.97
2018-11-27T15:07:58.130Z,101620.34
2018-11-27T15:10:26.353Z,101621.27
2018-11-27T15:12:54.646Z,101621.44
2018-11-27T15:15:22.919Z,101620.79
2018-11-27T15:17:51.080Z,101622.27
2018-11-27T15:20:21.246Z,101621.30
2018-11-27T15:22:49.422Z,101619.96
2018-11-27T15:25:17.793Z,101619.80
2018-11-27T15:27:46.188Z,101619.19
2018-11-27T15:30:17.597Z,101618.78
2018-11-27T15:32:45.970Z,101622.78
2018-11-27T15:35:14.488Z,101622.03
2018-11-27T15:37:42.831Z,101622.70
2018-11-27T15:40:12.457Z,101625.30
2018-11-27T15:42:41.316Z,101621.67
2018-11-27T15:45:12.030Z,101616.36
2018-11-27T15:47:40.257Z,101617.63
2018-11-27T15:50:09.596Z,101612.53
2018-11-27T15:52:37.791Z,101609.30
2018-11-27T15:55:09.961Z,101606.31
2018-11-27T15:57:38.173Z,101601.09
2018-11-27T16:00:09.535Z,101608.50
2018-11-27T16:02:37.749Z,101608.06
2018-11-27T16:05:06.217Z,101601.27
2018-11-27T16:07:34.530Z,101601.03
2018-11-27T16:10:02.672Z,101608.20
2018-11-27T16:12:30.840Z,101609.15
2018-11-27T16:14:59.045Z,101605.05
2018-11-27T16:17:27.189Z,101610.94
2018-11-27T16:19:55.378Z,101609.14
2018-11-27T16:22:23.577Z,101614.14
2018-11-27T16:24:51.819Z,101611.16
2018-11-27T16:27:19.941Z,101617.33
2018-11-27T16:29:48.207Z,101623.64
2018-11-27T16:32:16.402Z,101617.77
2018-11-27T16:34:44.620Z,101620.14
2018-11-27T16:37:12.798Z,101628.95
2018-11-27T16:39:40.998Z,101633.42
2018-11-27T16:42:09.140Z,101642.27
2018-11-27T16:44:37.297Z,101636.04
2018-11-27T16:47:05.695Z,101636.25
2018-11-27T16:49:34.424Z,101636.50
2018-11-27T16:52:02.582Z,101640.08
2018-11-27T16:54:30.885Z,101637.98
2018-11-27T16:56:59.105Z,101644.25
2018-11-27T16:59:27.282Z,101637.83
2018-11-27T17:01:55.557Z,101640.62
2018-11-27T17:04:24.654Z,101637.84
2018-11-27T17:06:52.868Z,101641.45
2018-11-27T17:09:21.106Z,101641.70
2018-11-27T17:11:49.257Z,101636.53
2018-11-27T17:14:17.499Z,101632.81
2018-11-27T17:16:45.761Z,101636.59
2018-11-27T17:19:14.020Z,101637.91
2018-11-27T17:21:42.287Z,101638.68
2018-11-27T17:24:10.451Z,101626.02
2018-11-27T17:26:38.633Z,101618.15
2018-11-27T17:29:07.640Z,101629.19
2018-11-27T17:31:35.930Z,101637.13
2018-11-27T17:34:07.756Z,101639.47
2018-11-27T17:36:36.241Z,101643.41
2018-11-27T17:39:09.382Z,101644.72
2018-11-27T17:41:37.542Z,101644.80
2018-11-27T17:44:07.180Z,101646.57
2018-11-27T17:46:35.325Z,101645.33
2018-11-27T17:49:03.556Z,101658.06
2018-11-27T17:51:31.711Z,101663.70
2018-11-27T17:53:59.890Z,101665.09
2018-11-27T17:56:28.093Z,101655.05
2018-11-27T17:58:56.257Z,101655.83
2018-11-27T18:01:24.431Z,101654.37
2018-11-27T18:03:52.643Z,101653.80
2018-11-27T18:06:20.890Z,101654.19
2018-11-27T18:08:49.049Z,101656.81
2018-11-27T18:11:17.245Z,101656.42
2018-11-27T18:13:45.926Z,101663.44
2018-11-27T18:16:14.830Z,101661.67
2018-11-27T18:18:43.092Z,101663.44
2018-11-27T18:21:11.232Z,101657.73
2018-11-27T18:23:39.414Z,101648.55
2018-11-27T18:26:07.594Z,101637.85
2018-11-27T18:28:36.017Z,101633.53
2018-11-27T18:31:04.288Z,101641.55
2018-11-27T18:33:32.508Z,101643.86
2018-11-27T18:36:00.657Z,101643.55
2018-11-27T18:38:28.872Z,101650.56
2018-11-27T18:40:57.269Z,101654.11
2018-11-27T18:43:25.476Z,101650.74
2018-11-27T18:45:53.682Z,101651.28
2018-11-27T18:48:21.855Z,101637.84
2018-11-27T18:50:50.106Z,101638.77
2018-11-27T18:53:18.328Z,101639.70
2018-11-27T18:55:46.529Z,101644.16
2018-11-27T18:58:14.765Z,101646.86
2018-11-27T19:00:42.971Z,101645.23
2018-11-27T19:03:11.237Z,101644.25
2018-11-27T19:05:39.513Z,101642.55
2018-11-27T19:08:07.846Z,101642.69
2018-11-27T19:10:36.096Z,101640.99
2018-11-27T19:13:04.817Z,101640.22
2018-11-27T19:15:38.478Z,101640.75
2018-11-27T19:18:10.206Z,101648.33
2018-11-27T19:20:38.486Z,101652.72
2018-11-27T19:23:06.697Z,101656.73
2018-11-27T19:25:34.942Z,101652.33
2018-11-27T19:28:03.134Z,101648.41
2018-11-27T19:30:32.382Z,101649.78
2018-11-27T19:32:59.565Z,101654.95
2018-11-27T19:35:27.829Z,101663.74
2018-11-27T19:37:56.050Z,101665.58
2018-11-27T19:40:24.434Z,101669.05
2018-11-27T19:42:52.635Z,101661.65
2018-11-27T19:45:24.415Z,101674.37
2018-11-27T19:47:52.802Z,101675.44
2018-11-27T19:50:21.097Z,101672.20
2018-11-27T19:52:50.685Z,101670.89
2018-11-27T19:55:19.296Z,101671.71
2018-11-27T19:57:47.538Z,101675.36
2018-11-27T20:00:17.207Z,101671.03
2018-11-27T20:02:45.474Z,101675.95
2018-11-27T20:05:15.126Z,101677.73
2018-11-27T20:07:43.334Z,101672.95
2018-11-27T20:10:14.280Z,101672.09
2018-11-27T20:12:42.558Z,101669.02
2018-11-27T20:15:18.944Z,101667.77
2018-11-27T20:17:47.998Z,101672.77
2018-11-27T20:20:17.938Z,101683.70
2018-11-27T20:22:46.210Z,101681.16
2018-11-27T20:25:16.286Z,101681.61
2018-11-27T20:27:44.795Z,101682.56
2018-11-27T20:30:14.750Z,101676.94
2018-11-27T20:32:44.399Z,101676.47
2018-11-27T20:35:13.846Z,101676.55
2018-11-27T20:37:42.307Z,101679.62
2018-11-27T20:40:11.934Z,101681.07
2018-11-27T20:42:40.131Z,101671.58
2018-11-27T20:45:19.306Z,101673.42
2018-11-27T20:47:44.908Z,101676.11
2018-11-27T20:50:15.745Z,101670.08
2018-11-27T20:52:43.994Z,101673.63
2018-11-27T20:55:12.400Z,101673.01
2018-11-27T20:57:41.646Z,101679.83
2018-11-27T21:00:14.622Z,101673.80
2018-11-27T21:02:42.980Z,101679.44
2018-11-27T21:05:11.390Z,101682.58
2018-11-27T21:07:39.573Z,101679.57
2018-11-27T21:10:09.847Z,101680.42
2018-11-27T21:12:38.070Z,101678.82
2018-11-27T21:15:11.326Z,101681.64
2018-11-27T21:17:39.596Z,101680.33
2018-11-27T21:20:10.079Z,101689.17
2018-11-27T21:22:38.634Z,101690.48
2018-11-27T21:25:10.744Z,101694.02
2018-11-27T21:27:39.046Z,101695.19
2018-11-27T21:30:16.457Z,101697.03
2018-11-27T21:32:44.909Z,101694.02
2018-11-27T21:35:14.403Z,101697.09
2018-11-27T21:37:43.293Z,101694.02
2018-11-27T21:40:13.409Z,101691.85
2018-11-27T21:42:41.674Z,101701.88
2018-11-27T21:45:11.597Z,101694.54
2018-11-27T21:47:39.874Z,101696.77
2018-11-27T21:50:10.154Z,101697.29
2018-11-27T21:52:38.417Z,101697.29
2018-11-27T21:55:09.867Z,101689.99
2018-11-27T21:57:38.579Z,101694.91
2018-11-27T22:00:13.082Z,101689.27
2018-11-27T22:02:41.392Z,101678.86
2018-11-27T22:05:10.239Z,101682.34
2018-11-27T22:07:38.431Z,101683.67
2018-11-27T22:10:10.608Z,101692.80
2018-11-27T22:12:38.805Z,101689.83
2018-11-27T22:15:10.399Z,101688.52
2018-11-27T22:17:38.631Z,101694.67
2018-11-27T22:20:08.944Z,101689.95
2018-11-27T22:22:37.116Z,101688.65
2018-11-27T22:25:07.022Z,101694.86
2018-11-27T22:27:35.435Z,101698.44
2018-11-27T22:30:03.682Z,101699.81
2018-11-27T22:32:31.946Z,101694.97
2018-11-27T22:35:00.173Z,101692.34
2018-11-27T22:37:28.329Z,101688.94
2018-11-27T22:39:56.529Z,101686.39
2018-11-27T22:42:24.730Z,101686.45
2018-11-27T22:44:53.094Z,101682.53
2018-11-27T22:47:21.298Z,101684.42
2018-11-27T22:49:49.606Z,101695.29
2018-11-27T22:52:17.785Z,101687.89
2018-11-27T22:54:45.995Z,101695.68
2018-11-27T22:57:14.214Z,101689.14
2018-11-27T22:59:42.530Z,101688.67
2018-11-27T23:02:10.774Z,101688.28
2018-11-27T23:04:39.043Z,101690.45
2018-11-27T23:07:07.223Z,101691.30
2018-11-27T23:09:35.461Z,101697.84
2018-11-27T23:12:03.676Z,101689.14
2018-11-27T23:14:31.906Z,101685.67
2018-11-27T23:17:00.106Z,101685.21
2018-11-27T23:19:28.318Z,101684.88
2018-11-27T23:21:57.069Z,101685.01
2018-11-27T23:24:25.253Z,101687.63
2018-11-27T23:26:53.392Z,101688.70
2018-11-27T23:29:21.551Z,101681.77
2018-11-27T23:31:49.691Z,101684.38
2018-11-27T23:34:17.881Z,101682.55
2018-11-27T23:36:46.077Z,101684.22
2018-11-27T23:39:14.229Z,101679.84
2018-11-27T23:41:42.372Z,101686.84
2018-11-27T23:44:10.531Z,101681.15
2018-11-27T23:46:38.708Z,101669.47
2018-11-27T23:49:06.869Z,101666.39
2018-11-27T23:51:35.033Z,101666.45
2018-11-27T23:54:03.188Z,101655.72
2018-11-27T23:56:31.321Z,101653.11
2018-11-27T23:58:59.486Z,101661.35
